createdAt,value
2023-05-14T00:00:52.182Z,20.74
2023-05-14T00:03:20.665Z,20.76
2023-05-14T00:05:49.387Z,20.75
2023-05-14T00:08:17.828Z,20.75
2023-05-14T00:10:46.365Z,20.74
2023-05-14T00:13:14.850Z,20.75
2023-05-14T00:15:44.655Z,20.75
2023-05-14T00:18:13.360Z,20.75
2023-05-14T00:20:41.972Z,20.75
2023-05-14T00:23:10.714Z,20.74
2023-05-14T00:25:39.166Z,20.74
2023-05-14T00:28:07.587Z,20.75
2023-05-14T00:30:36.023Z,20.76
2023-05-14T00:33:05.851Z,20.75
2023-05-14T00:35:35.303Z,20.76
2023-05-14T00:38:04.187Z,20.74
2023-05-14T00:40:32.665Z,20.73
2023-05-14T00:43:01.218Z,20.74
2023-05-14T00:45:29.989Z,20.73
2023-05-14T00:47:58.594Z,20.75
2023-05-14T00:50:28.674Z,20.75
2023-05-14T00:52:57.107Z,20.74
2023-05-14T00:55:25.942Z,20.74
2023-05-14T00:57:55.907Z,20.74
2023-05-14T01:00:24.686Z,20.73
2023-05-14T01:02:53.530Z,20.73
2023-05-14T01:05:25.392Z,20.74
2023-05-14T01:08:05.286Z,20.73
2023-05-14T01:10:46.833Z,20.74
2023-05-14T01:13:20.992Z,20.74
2023-05-14T01:15:50.548Z,20.73
2023-05-14T01:18:20.036Z,20.74
2023-05-14T01:20:52.128Z,20.73
2023-05-14T01:23:22.123Z,20.72
2023-05-14T01:25:50.644Z,20.73
2023-05-14T01:28:21.180Z,20.72
2023-05-14T01:30:57.956Z,20.72
2023-05-14T01:33:30.396Z,20.73
2023-05-14T01:35:59.370Z,20.73
2023-05-14T01:38:31.696Z,20.72
2023-05-14T01:41:01.051Z,20.72
2023-05-14T01:43:31.275Z,20.73
2023-05-14T01:45:59.866Z,20.73
2023-05-14T01:48:29.981Z,20.72
2023-05-14T01:50:58.622Z,20.72
2023-05-14T01:53:27.364Z,20.72
2023-05-14T01:55:57.167Z,20.72
2023-05-14T01:58:25.865Z,20.72
2023-05-14T02:00:54.706Z,20.71
2023-05-14T02:03:23.192Z,20.72
2023-05-14T02:05:51.997Z,20.71
2023-05-14T02:08:20.792Z,20.71
2023-05-14T02:10:49.907Z,20.71
2023-05-14T02:13:20.430Z,20.70
2023-05-14T02:15:48.898Z,20.71
2023-05-14T02:18:17.356Z,20.71
2023-05-14T02:20:45.747Z,20.71
2023-05-14T02:23:14.192Z,20.70
2023-05-14T02:25:45.107Z,20.71
2023-05-14T02:28:13.491Z,20.70
2023-05-14T02:30:43.305Z,20.70
2023-05-14T02:33:11.901Z,20.70
2023-05-14T02:35:40.567Z,20.71
2023-05-14T02:38:09.032Z,20.71
2023-05-14T02:40:38.045Z,20.69
2023-05-14T02:43:06.722Z,20.70
2023-05-14T02:45:35.195Z,20.70
2023-05-14T02:48:05.106Z,20.71
2023-05-14T02:50:33.640Z,20.69
2023-05-14T02:53:02.052Z,20.70
2023-05-14T02:55:30.842Z,20.70
2023-05-14T02:57:59.260Z,20.69
2023-05-14T03:00:27.669Z,20.70
2023-05-14T03:02:58.245Z,20.68
2023-05-14T03:05:28.679Z,20.69
2023-05-14T03:07:57.178Z,20.69
2023-05-14T03:10:25.947Z,20.70
2023-05-14T03:12:54.689Z,20.68
2023-05-14T03:15:23.143Z,20.68
2023-05-14T03:17:51.785Z,20.67
2023-05-14T03:20:20.465Z,20.69
2023-05-14T03:22:50.427Z,20.68
2023-05-14T03:25:18.948Z,20.68
2023-05-14T03:27:48.637Z,20.69
2023-05-14T03:30:17.237Z,20.68
2023-05-14T03:32:45.905Z,20.68
2023-05-14T03:35:14.651Z,20.68
2023-05-14T03:37:43.190Z,20.67
2023-05-14T03:40:13.733Z,20.68
2023-05-14T03:42:42.122Z,20.66
2023-05-14T03:45:12.178Z,20.69
2023-05-14T03:47:41.032Z,20.67
2023-05-14T03:50:10.166Z,20.68
2023-05-14T03:52:39.017Z,20.67
2023-05-14T03:55:08.435Z,20.68
2023-05-14T03:57:39.411Z,20.68
2023-05-14T04:00:08.997Z,20.68
2023-05-14T04:02:45.503Z,20.68
2023-05-14T04:05:14.041Z,20.67
2023-05-14T04:07:42.502Z,20.67
2023-05-14T04:10:11.426Z,20.68
2023-05-14T04:12:41.232Z,20.68
2023-05-14T04:15:11.050Z,20.67
2023-05-14T04:17:39.536Z,20.67
2023-05-14T04:20:09.121Z,20.68
2023-05-14T04:22:37.562Z,20.67
2023-05-14T04:25:06.746Z,20.68
2023-05-14T04:27:35.295Z,20.69
2023-05-14T04:30:06.475Z,20.67
2023-05-14T04:32:34.871Z,20.66
2023-05-14T04:35:04.213Z,20.67
2023-05-14T04:37:32.965Z,20.66
2023-05-14T04:40:01.467Z,20.66
2023-05-14T04:42:29.875Z,20.66
2023-05-14T04:44:58.690Z,20.67
2023-05-14T04:47:28.474Z,20.66
2023-05-14T04:49:57.805Z,20.66
2023-05-14T04:52:26.479Z,20.67
2023-05-14T04:54:55.138Z,20.66
2023-05-14T04:57:23.537Z,20.66
2023-05-14T04:59:51.929Z,20.66
2023-05-14T05:02:20.361Z,20.66
2023-05-14T05:04:50.103Z,20.65
2023-05-14T05:07:18.591Z,20.66
2023-05-14T05:09:46.922Z,20.65
2023-05-14T05:12:15.395Z,20.67
2023-05-14T05:14:43.848Z,20.65
2023-05-14T05:17:12.222Z,20.64
2023-05-14T05:19:44.037Z,20.65
2023-05-14T05:22:14.169Z,20.66
2023-05-14T05:24:42.635Z,20.65
2023-05-14T05:27:11.060Z,20.65
2023-05-14T05:29:39.531Z,20.64
2023-05-14T05:32:08.857Z,20.66
2023-05-14T05:34:37.387Z,20.66
2023-05-14T05:37:06.114Z,20.66
2023-05-14T05:39:36.099Z,20.64
2023-05-14T05:42:06.972Z,20.64
2023-05-14T05:44:35.538Z,20.64
2023-05-14T05:47:04.081Z,20.64
2023-05-14T05:49:32.523Z,20.62
2023-05-14T05:52:01.049Z,20.60
2023-05-14T05:54:29.550Z,20.56
2023-05-14T05:56:59.504Z,20.54
2023-05-14T05:59:28.000Z,20.51
2023-05-14T06:01:56.508Z,20.50
2023-05-14T06:04:24.990Z,20.50
2023-05-14T06:06:53.468Z,20.50
2023-05-14T06:09:22.152Z,20.52
2023-05-14T06:11:50.717Z,20.53
2023-05-14T06:14:20.509Z,20.54
2023-05-14T06:16:49.032Z,20.54
2023-05-14T06:19:18.424Z,20.53
2023-05-14T06:21:46.895Z,20.51
2023-05-14T06:24:16.422Z,20.48
2023-05-14T06:26:44.839Z,20.48
2023-05-14T06:29:13.284Z,20.49
2023-05-14T06:31:43.434Z,20.50
2023-05-14T06:34:12.023Z,20.50
2023-05-14T06:36:40.428Z,20.49
2023-05-14T06:39:08.871Z,20.49
2023-05-14T06:41:37.254Z,20.46
2023-05-14T06:44:06.026Z,20.44
2023-05-14T06:46:38.791Z,20.45
2023-05-14T06:49:22.650Z,20.45
2023-05-14T06:51:51.113Z,20.47
2023-05-14T06:54:20.436Z,20.49
2023-05-14T06:56:48.953Z,20.50
2023-05-14T06:59:17.459Z,20.52
2023-05-14T07:01:45.957Z,20.53
2023-05-14T07:04:14.539Z,20.52
2023-05-14T07:06:44.414Z,20.55
2023-05-14T07:09:13.279Z,20.56
2023-05-14T07:11:41.794Z,20.55
2023-05-14T07:14:10.314Z,20.57
2023-05-14T07:16:38.839Z,20.59
2023-05-14T07:19:07.426Z,20.60
2023-05-14T07:21:35.943Z,20.61
2023-05-14T07:24:06.736Z,20.60
2023-05-14T07:26:35.277Z,20.61
2023-05-14T07:29:03.752Z,20.62
2023-05-14T07:31:32.257Z,20.63
2023-05-14T07:34:00.777Z,20.65
2023-05-14T07:36:29.293Z,20.66
2023-05-14T07:38:57.996Z,20.66
2023-05-14T07:41:27.869Z,20.67
2023-05-14T07:43:56.403Z,20.69
2023-05-14T07:46:25.803Z,20.69
2023-05-14T07:48:54.316Z,20.69
2023-05-14T07:51:23.052Z,20.70
2023-05-14T07:53:51.477Z,20.71
2023-05-14T07:56:19.983Z,20.70
2023-05-14T07:58:49.856Z,20.72
2023-05-14T08:01:18.505Z,20.71
2023-05-14T08:03:47.657Z,20.73
2023-05-14T08:06:16.282Z,20.74
2023-05-14T08:08:44.723Z,20.73
2023-05-14T08:11:13.292Z,20.73
2023-05-14T08:13:41.873Z,20.73
2023-05-14T08:16:11.665Z,20.73
2023-05-14T08:18:40.199Z,20.74
2023-05-14T08:21:08.788Z,20.72
2023-05-14T08:23:37.335Z,20.73
2023-05-14T08:26:06.171Z,20.74
2023-05-14T08:28:34.583Z,20.76
2023-05-14T08:31:03.099Z,20.78
2023-05-14T08:33:33.089Z,20.80
2023-05-14T08:36:01.620Z,20.81
2023-05-14T08:38:30.085Z,20.81
2023-05-14T08:40:59.766Z,20.82
2023-05-14T08:43:37.004Z,20.83
2023-05-14T08:46:07.015Z,20.83
2023-05-14T08:48:37.749Z,20.84
2023-05-14T08:51:07.899Z,20.82
2023-05-14T08:53:38.151Z,20.81
2023-05-14T08:56:08.106Z,20.80
2023-05-14T08:58:36.635Z,20.81
2023-05-14T09:01:05.702Z,20.80
2023-05-14T09:03:36.199Z,20.82
2023-05-14T09:06:06.961Z,20.83
2023-05-14T09:08:36.339Z,20.82
2023-05-14T09:11:04.862Z,20.83
2023-05-14T09:13:33.373Z,20.84
2023-05-14T09:16:02.108Z,20.83
2023-05-14T09:18:30.784Z,20.82
2023-05-14T09:21:01.293Z,20.82
2023-05-14T09:23:33.377Z,20.84
2023-05-14T09:26:05.922Z,20.84
2023-05-14T09:28:34.492Z,20.86
2023-05-14T09:31:03.893Z,20.85
2023-05-14T09:33:32.826Z,20.87
2023-05-14T09:36:03.324Z,20.87
2023-05-14T09:38:32.327Z,20.87
2023-05-14T09:41:01.606Z,20.88
2023-05-14T09:43:30.120Z,20.89
2023-05-14T09:45:58.570Z,20.90
2023-05-14T09:48:27.313Z,20.90
2023-05-14T09:50:56.142Z,20.89
2023-05-14T09:53:26.085Z,20.91
2023-05-14T09:55:54.776Z,20.92
2023-05-14T09:58:23.299Z,20.92
2023-05-14T10:00:52.814Z,20.92
2023-05-14T10:03:22.990Z,20.94
2023-05-14T10:05:52.187Z,20.93
2023-05-14T10:08:25.471Z,20.93
2023-05-14T10:10:56.909Z,20.94
2023-05-14T10:13:29.775Z,20.95
2023-05-14T10:16:06.610Z,20.95
2023-05-14T10:18:40.809Z,20.95
2023-05-14T10:21:11.560Z,20.95
2023-05-14T10:23:40.634Z,20.99
2023-05-14T10:26:11.912Z,20.98
2023-05-14T10:28:40.802Z,20.99
2023-05-14T10:31:10.961Z,20.97
2023-05-14T10:33:50.179Z,20.97
2023-05-14T10:36:19.406Z,20.97
2023-05-14T10:38:48.046Z,20.97
2023-05-14T10:41:18.548Z,20.97
2023-05-14T10:43:47.022Z,20.97
2023-05-14T10:46:15.846Z,20.97
2023-05-14T10:48:46.681Z,20.97
2023-05-14T10:51:17.596Z,20.96
2023-05-14T10:53:46.385Z,20.96
2023-05-14T10:56:15.566Z,20.97
2023-05-14T10:58:46.241Z,20.97
2023-05-14T11:01:15.001Z,20.98
2023-05-14T11:03:46.191Z,20.99
2023-05-14T11:06:17.193Z,20.99
2023-05-14T11:08:46.529Z,21.01
2023-05-14T11:11:15.272Z,21.00
2023-05-14T11:13:45.946Z,21.00
2023-05-14T11:18:54.916Z,20.97
2023-05-14T11:21:23.504Z,20.97
2023-05-14T11:23:51.939Z,20.97
2023-05-14T11:26:21.621Z,21.01
2023-05-14T11:28:51.754Z,21.01
2023-05-14T11:31:20.306Z,21.01
2023-05-14T11:33:48.790Z,21.01
2023-05-14T11:36:17.353Z,21.01
2023-05-14T11:38:51.385Z,21.01
2023-05-14T11:41:21.624Z,21.00
2023-05-14T11:43:51.659Z,20.99
2023-05-14T11:46:20.632Z,20.99
2023-05-14T11:48:49.210Z,20.97
2023-05-14T11:51:17.693Z,20.97
2023-05-14T11:53:47.396Z,20.98
2023-05-14T11:56:15.956Z,20.96
2023-05-14T11:58:49.121Z,20.96
2023-05-14T12:01:18.992Z,20.96
2023-05-14T12:03:47.724Z,20.97
2023-05-14T12:06:16.274Z,20.96
2023-05-14T12:08:44.685Z,20.96
2023-05-14T12:11:13.115Z,20.95
2023-05-14T12:13:41.662Z,20.95
2023-05-14T12:16:10.144Z,20.94
2023-05-14T12:18:40.018Z,20.95
2023-05-14T12:21:09.108Z,20.95
2023-05-14T12:23:40.083Z,20.95
2023-05-14T12:26:10.120Z,20.94
2023-05-14T12:28:43.246Z,20.94
2023-05-14T12:31:12.357Z,20.94
2023-05-14T12:33:42.192Z,20.95
2023-05-14T12:36:21.183Z,20.94
2023-05-14T12:38:50.775Z,20.94
2023-05-14T12:41:19.266Z,20.94
2023-05-14T12:43:49.697Z,20.93
2023-05-14T12:46:18.241Z,20.93
2023-05-14T12:48:48.067Z,20.93
2023-05-14T12:51:16.537Z,20.92
2023-05-14T12:53:44.994Z,20.92
2023-05-14T12:56:14.726Z,20.93
2023-05-14T12:58:43.188Z,20.93
2023-05-14T13:01:11.699Z,20.95
2023-05-14T13:03:40.218Z,20.97
2023-05-14T13:06:10.037Z,20.99
2023-05-14T13:08:38.496Z,21.00
2023-05-14T13:11:07.154Z,21.00
2023-05-14T13:13:35.730Z,21.00
2023-05-14T13:16:04.658Z,21.01
2023-05-14T13:18:33.122Z,21.02
2023-05-14T13:21:04.280Z,21.02
2023-05-14T13:23:34.066Z,21.04
2023-05-14T13:26:02.628Z,21.04
2023-05-14T13:28:31.115Z,21.06
2023-05-14T13:31:08.109Z,21.05
2023-05-14T13:33:37.683Z,21.05
2023-05-14T13:36:06.818Z,21.04
2023-05-14T13:38:36.689Z,21.05
2023-05-14T13:41:05.655Z,21.04
2023-05-14T13:43:35.616Z,21.03
2023-05-14T13:46:06.035Z,21.04
2023-05-14T13:48:35.818Z,21.03
2023-05-14T13:51:04.646Z,21.03
2023-05-14T13:53:33.121Z,21.04
2023-05-14T13:56:03.027Z,21.04
2023-05-14T13:58:31.536Z,21.05
2023-05-14T14:01:00.096Z,21.04
2023-05-14T14:03:28.648Z,21.05
2023-05-14T14:05:57.123Z,21.04
2023-05-14T14:08:25.570Z,21.04
2023-05-14T14:10:55.693Z,21.04
2023-05-14T14:13:25.934Z,21.06
2023-05-14T14:15:54.418Z,21.05
2023-05-14T14:18:22.944Z,21.05
2023-05-14T14:20:51.652Z,21.04
2023-05-14T14:23:20.282Z,21.04
2023-05-14T14:25:48.864Z,21.05
2023-05-14T14:28:17.414Z,21.05
2023-05-14T14:30:47.261Z,21.04
2023-05-14T14:33:15.834Z,21.04
2023-05-14T14:35:44.400Z,21.05
2023-05-14T14:38:12.807Z,21.05
2023-05-14T14:40:41.363Z,21.06
2023-05-14T14:43:09.966Z,21.03
2023-05-14T14:45:38.578Z,21.02
2023-05-14T14:48:28.778Z,21.00
2023-05-14T14:50:57.328Z,21.00
2023-05-14T14:53:25.876Z,20.99
2023-05-14T14:55:54.984Z,20.96
2023-05-14T14:58:23.591Z,20.95
2023-05-14T15:00:54.342Z,20.95
2023-05-14T15:03:23.454Z,20.93
2023-05-14T15:05:54.109Z,20.93
2023-05-14T15:08:26.411Z,20.93
2023-05-14T15:10:55.212Z,20.93
2023-05-14T15:13:24.493Z,20.92
2023-05-14T15:15:53.328Z,20.92
2023-05-14T15:18:21.959Z,20.91
2023-05-14T15:20:50.625Z,20.91
2023-05-14T15:23:20.457Z,20.90
2023-05-14T15:25:49.432Z,20.89
2023-05-14T15:28:18.151Z,20.89
2023-05-14T15:30:48.592Z,20.90
2023-05-14T15:33:19.022Z,20.90
2023-05-14T15:35:47.544Z,20.89
2023-05-14T15:38:16.096Z,20.89
2023-05-14T15:40:45.912Z,20.88
2023-05-14T15:43:14.389Z,20.88
2023-05-14T15:45:45.065Z,20.87
2023-05-14T15:48:13.641Z,20.86
2023-05-14T15:50:42.344Z,20.85
2023-05-14T15:53:10.771Z,20.83
2023-05-14T15:55:39.298Z,20.83
2023-05-14T15:58:09.171Z,20.82
2023-05-14T16:00:37.650Z,20.80
2023-05-14T16:03:06.218Z,20.80
2023-05-14T16:05:35.230Z,20.78
2023-05-14T16:08:03.798Z,20.77
2023-05-14T16:10:32.444Z,20.77
2023-05-14T16:13:01.163Z,20.75
2023-05-14T16:15:31.375Z,20.78
2023-05-14T16:18:01.160Z,20.79
2023-05-14T16:20:29.678Z,20.82
2023-05-14T16:22:58.232Z,20.82
2023-05-14T16:25:26.667Z,20.84
2023-05-14T16:27:55.477Z,20.86
2023-05-14T16:30:24.194Z,20.87
2023-05-14T16:32:54.257Z,20.89
2023-05-14T16:35:22.864Z,20.91
2023-05-14T16:37:51.389Z,20.91
2023-05-14T16:40:20.102Z,20.92
2023-05-14T16:42:49.449Z,20.92
2023-05-14T16:45:18.082Z,20.94
2023-05-14T16:47:46.513Z,20.94
2023-05-14T16:50:16.338Z,20.93
2023-05-14T16:52:44.820Z,20.93
2023-05-14T16:55:13.296Z,20.95
2023-05-14T16:57:43.659Z,20.94
2023-05-14T17:00:13.402Z,20.94
2023-05-14T17:02:42.143Z,20.95
2023-05-14T17:05:10.985Z,20.96
2023-05-14T17:07:41.207Z,20.96
2023-05-14T17:10:10.950Z,20.96
2023-05-14T17:12:39.442Z,20.97
2023-05-14T17:15:09.310Z,20.97
2023-05-14T17:17:38.080Z,20.98
2023-05-14T17:20:08.046Z,20.98
2023-05-14T17:22:36.443Z,20.98
2023-05-14T17:25:07.324Z,20.97
2023-05-14T17:27:36.353Z,20.96
2023-05-14T17:30:06.209Z,20.95
2023-05-14T17:32:36.039Z,20.95
2023-05-14T17:35:05.271Z,20.95
2023-05-14T17:37:36.481Z,20.95
2023-05-14T17:40:07.654Z,20.93
2023-05-14T17:42:36.163Z,20.92
2023-05-14T17:45:05.033Z,20.93
2023-05-14T17:47:33.939Z,20.92
2023-05-14T17:50:02.364Z,20.93
2023-05-14T17:52:30.863Z,20.92
2023-05-14T17:54:59.326Z,20.91
2023-05-14T17:57:29.223Z,20.90
2023-05-14T17:59:57.676Z,20.91
2023-05-14T18:02:26.233Z,20.90
2023-05-14T18:04:54.698Z,20.86
2023-05-14T18:07:23.925Z,20.83
2023-05-14T18:09:52.365Z,20.79
2023-05-14T18:12:23.087Z,20.76
2023-05-14T18:14:52.955Z,20.75
2023-05-14T18:17:21.527Z,20.78
2023-05-14T18:19:50.142Z,20.79
2023-05-14T18:22:20.265Z,20.82
2023-05-14T18:24:48.678Z,20.83
2023-05-14T18:27:17.219Z,20.85
2023-05-14T18:29:45.869Z,20.85
2023-05-14T18:32:16.000Z,20.87
2023-05-14T18:34:44.460Z,20.89
2023-05-14T18:37:13.599Z,20.89
2023-05-14T18:39:42.111Z,20.91
2023-05-14T18:42:10.751Z,20.92
2023-05-14T18:44:44.051Z,20.92
2023-05-14T18:47:12.734Z,20.94
2023-05-14T18:49:42.554Z,20.96
2023-05-14T18:52:11.059Z,20.97
2023-05-14T18:54:39.503Z,20.98
2023-05-14T18:57:08.045Z,21.00
2023-05-14T18:59:36.445Z,21.01
2023-05-14T19:02:04.941Z,21.02
2023-05-14T19:04:44.338Z,21.03
2023-05-14T19:07:21.297Z,21.01
2023-05-14T19:09:50.091Z,21.01
2023-05-14T19:12:18.644Z,21.04
2023-05-14T19:14:47.129Z,21.03
2023-05-14T19:17:17.323Z,21.03
2023-05-14T19:19:46.795Z,21.05
2023-05-14T19:22:15.305Z,21.05
2023-05-14T19:24:45.169Z,21.07
2023-05-14T19:27:16.109Z,21.05
2023-05-14T19:29:45.297Z,21.05
2023-05-14T19:32:13.781Z,21.03
2023-05-14T19:34:42.206Z,21.02
2023-05-14T19:37:11.135Z,21.01
2023-05-14T19:39:39.739Z,21.00
2023-05-14T19:42:09.654Z,21.00
2023-05-14T19:44:38.099Z,20.99
2023-05-14T19:47:07.098Z,21.00
2023-05-14T19:49:35.662Z,20.98
2023-05-14T19:52:04.230Z,20.98
2023-05-14T19:54:32.664Z,20.98
2023-05-14T19:57:01.406Z,20.95
2023-05-14T19:59:31.451Z,20.96
2023-05-14T20:01:59.977Z,20.95
2023-05-14T20:04:28.537Z,20.95
2023-05-14T20:06:57.769Z,20.94
2023-05-14T20:09:26.174Z,20.95
2023-05-14T20:11:54.579Z,20.94
2023-05-14T20:14:23.120Z,20.93
2023-05-14T20:16:53.086Z,20.94
2023-05-14T20:19:22.406Z,20.93
2023-05-14T20:21:51.070Z,20.93
2023-05-14T20:24:19.701Z,20.94
2023-05-14T20:26:48.171Z,20.91
2023-05-14T20:29:16.623Z,20.91
2023-05-14T20:31:45.127Z,20.92
2023-05-14T20:34:14.990Z,20.91
2023-05-14T20:36:43.451Z,20.90
2023-05-14T20:39:11.974Z,20.90
2023-05-14T20:41:40.738Z,20.88
2023-05-14T20:44:09.274Z,20.88
2023-05-14T20:46:37.817Z,20.88
2023-05-14T20:49:06.278Z,20.87
2023-05-14T20:51:36.083Z,20.87
2023-05-14T20:54:04.723Z,20.87
2023-05-14T20:56:33.410Z,20.84
2023-05-14T20:59:01.851Z,20.82
2023-05-14T21:01:30.424Z,20.85
2023-05-14T21:03:59.114Z,20.84
2023-05-14T21:06:27.669Z,20.83
2023-05-14T21:08:57.402Z,20.83
2023-05-14T21:11:25.998Z,20.83
2023-05-14T21:13:54.452Z,20.81
2023-05-14T21:16:23.238Z,20.81
2023-05-14T21:18:51.762Z,20.80
2023-05-14T21:21:20.391Z,20.79
2023-05-14T21:23:48.853Z,20.80
2023-05-14T21:26:18.716Z,20.80
2023-05-14T21:28:47.107Z,20.79
2023-05-14T21:31:15.580Z,20.79
2023-05-14T21:33:43.992Z,20.79
2023-05-14T21:36:12.408Z,20.79
2023-05-14T21:38:41.186Z,20.77
2023-05-14T21:41:09.672Z,20.77
2023-05-14T21:43:40.612Z,20.77
2023-05-14T21:46:09.149Z,20.77
2023-05-14T21:48:37.660Z,20.75
2023-05-14T21:51:07.372Z,20.77
2023-05-14T21:53:35.795Z,20.76
2023-05-14T21:56:04.269Z,20.75
2023-05-14T21:58:32.702Z,20.76
2023-05-14T22:01:02.571Z,20.74
2023-05-14T22:03:31.051Z,20.75
2023-05-14T22:05:59.639Z,20.76
2023-05-14T22:08:29.565Z,20.74
2023-05-14T22:10:57.958Z,20.75
2023-05-14T22:13:26.404Z,20.73
2023-05-14T22:16:01.353Z,20.75
2023-05-14T22:18:41.716Z,20.74
2023-05-14T22:21:10.183Z,20.74
2023-05-14T22:23:38.615Z,20.72
2023-05-14T22:26:07.044Z,20.72
2023-05-14T22:28:36.735Z,20.73
2023-05-14T22:31:05.378Z,20.72
2023-05-14T22:33:34.125Z,20.71
2023-05-14T22:36:04.339Z,20.72
2023-05-14T22:38:32.740Z,20.70
2023-05-14T22:41:01.131Z,20.71
2023-05-14T22:43:30.280Z,20.68
2023-05-14T22:45:58.750Z,20.71
2023-05-14T22:48:27.137Z,20.70
2023-05-14T22:50:55.606Z,20.70
2023-05-14T22:53:25.564Z,20.70
2023-05-14T22:55:54.030Z,20.70
2023-05-14T22:58:22.450Z,20.70
2023-05-14T23:00:50.904Z,20.69
2023-05-14T23:03:19.328Z,20.69
2023-05-14T23:05:47.807Z,20.69
2023-05-14T23:08:16.238Z,20.69
2023-05-14T23:10:46.018Z,20.69
2023-05-14T23:13:14.413Z,20.68
2023-05-14T23:15:43.887Z,20.67
2023-05-14T23:18:12.487Z,20.68
2023-05-14T23:20:41.028Z,20.68
2023-05-14T23:23:09.428Z,20.67
2023-05-14T23:25:37.917Z,20.67
2023-05-14T23:28:07.964Z,20.67
2023-05-14T23:30:36.547Z,20.68
2023-05-14T23:33:04.968Z,20.68
2023-05-14T23:35:33.382Z,20.67
2023-05-14T23:38:01.931Z,20.66
2023-05-14T23:40:30.300Z,20.68
2023-05-14T23:42:59.548Z,20.66
2023-05-14T23:45:29.625Z,20.66
2023-05-14T23:47:59.592Z,20.66
2023-05-14T23:50:28.086Z,20.64
2023-05-14T23:52:56.671Z,20.66
2023-05-14T23:55:25.417Z,20.65
2023-05-14T23:57:54.119Z,20.64
